Time;durP1;ratioP1;P1;durP2;ratioP2;P2;SDS_P1;SDS_P2;PMS_P1;PMS_P2;Temp;Humidity;BMP_temperature;BMP_pressure;BME280_temperature;BME280_humidity;BME280_pressure;Samples;Min_cycle;Max_cycle;Signal;HPM_P1;HPM_P2
2022/09/30 00:02:22;;;;;;;9.88;8.88;;;10.70;99.90;;;;;;5014284;28;20262;-78
2022/09/30 00:04:47;;;;;;;16.75;8.82;;;10.60;99.90;;;;;;5012503;28;20578;-77
2022/09/30 00:07:13;;;;;;;9.32;8.43;;;10.50;99.90;;;;;;5013757;28;20184;-78
2022/09/30 00:09:38;;;;;;;11.77;8.82;;;10.60;99.90;;;;;;5013931;28;20165;-79
2022/09/30 00:12:04;;;;;;;11.80;8.50;;;10.60;99.90;;;;;;5013418;28;20543;-77
2022/09/30 00:14:29;;;;;;;11.40;8.55;;;10.50;99.90;;;;;;5012736;28;20599;-77
2022/09/30 00:16:55;;;;;;;9.80;8.85;;;10.50;99.90;;;;;;5013969;28;20174;-77
2022/09/30 00:19:21;;;;;;;10.38;8.93;;;10.40;99.90;;;;;;5013761;28;20528;-77
2022/09/30 00:21:46;;;;;;;12.80;8.25;;;10.40;99.90;;;;;;5013639;28;20211;-79
2022/09/30 00:24:12;;;;;;;10.82;8.70;;;10.50;99.90;;;;;;5013380;28;20742;-80
2022/09/30 00:26:38;;;;;;;11.30;9.70;;;10.50;99.90;;;;;;5013350;28;20172;-79
2022/09/30 00:29:04;;;;;;;10.48;8.70;;;10.50;99.90;;;;;;5013832;28;20209;-76
2022/09/30 00:31:32;;;;;;;11.25;8.90;;;10.50;99.90;;;;;;5014266;28;20180;-76
2022/09/30 00:34:07;;;;;;;12.95;9.13;;;10.40;99.90;;;;;;5014397;28;20178;-76
2022/09/30 00:36:34;;;;;;;8.90;8.10;;;10.40;99.90;;;;;;5013144;28;20168;-77
2022/09/30 00:39:00;;;;;;;10.65;9.35;;;10.30;99.90;;;;;;5013634;28;20169;-77
2022/09/30 00:41:27;;;;;;;10.80;8.70;;;10.20;99.90;;;;;;5014031;28;20747;-76
2022/09/30 00:43:53;;;;;;;10.38;9.10;;;10.30;99.90;;;;;;5013817;28;20173;-77
2022/09/30 00:46:40;;;;;;;10.57;9.40;;;10.40;99.90;;;;;;5014144;28;20160;-77
2022/09/30 00:49:12;;;;;;;9.57;8.60;;;10.30;99.90;;;;;;5014353;28;20496;-77
2022/09/30 00:51:43;;;;;;;9.75;8.88;;;10.40;99.90;;;;;;5014481;28;20179;-76
2022/09/30 00:54:15;;;;;;;10.52;9.27;;;10.30;99.90;;;;;;5014535;28;20185;-79
2022/09/30 00:56:59;;;;;;;9.35;8.45;;;10.20;99.90;;;;;;5013770;28;20651;-77
2022/09/30 00:59:37;;;;;;;11.40;8.95;;;10.10;99.90;;;;;;5013108;28;20165;-78
2022/09/30 01:02:04;;;;;;;13.55;10.68;;;10.00;99.90;;;;;;5013158;28;20196;-78
2022/09/30 01:04:31;;;;;;;10.93;9.82;;;10.10;99.90;;;;;;5013285;28;20561;-77
2022/09/30 01:07:07;;;;;;;11.40;10.30;;;10.20;99.90;;;;;;5013252;28;20165;-76
2022/09/30 01:09:37;;;;;;;14.63;9.52;;;10.10;99.90;;;;;;4995730;28;20236;-80
2022/09/30 01:12:06;;;;;;;16.48;10.73;;;10.10;99.90;;;;;;5013229;28;20199;-76
2022/09/30 01:14:31;;;;;;;10.05;9.15;;;10.10;99.90;;;;;;4996108;28;20590;-76
2022/09/30 01:17:05;;;;;;;12.30;9.90;;;10.10;99.90;;;;;;5013346;28;20177;-79
2022/09/30 01:20:02;;;;;;;13.63;9.55;;;10.10;99.90;;;;;;5012897;28;20255;-76
2022/09/30 01:22:56;;;;;;;9.75;8.93;;;10.10;99.90;;;;;;5012648;28;20908;-76
2022/09/30 01:25:55;;;;;;;14.48;9.45;;;10.20;99.90;;;;;;5012954;28;20191;-76
2022/09/30 01:28:58;;;;;;;19.33;10.27;;;10.10;99.90;;;;;;5012982;28;20173;-75
2022/09/30 01:31:59;;;;;;;10.23;8.98;;;10.10;99.90;;;;;;4995614;28;20266;-76
2022/09/30 01:34:28;;;;;;;10.93;8.80;;;10.00;99.90;;;;;;4999646;28;20287;-77
2022/09/30 01:36:59;;;;;;;15.93;10.02;;;9.90;99.90;;;;;;5013483;28;20173;-77
2022/09/30 01:39:46;;;;;;;10.85;9.75;;;9.80;99.90;;;;;;5013641;28;20228;-75
2022/09/30 01:42:35;;;;;;;17.83;8.75;;;9.90;99.90;;;;;;5012492;28;20211;-76
2022/09/30 01:45:17;;;;;;;11.25;10.07;;;9.80;99.90;;;;;;5012354;28;20184;-75
2022/09/30 01:47:54;;;;;;;12.75;9.90;;;9.80;99.90;;;;;;5012523;28;20195;-76
2022/09/30 01:50:58;;;;;;;23.35;9.93;;;9.70;99.90;;;;;;5012453;28;20172;-75
2022/09/30 01:53:29;;;;;;;20.95;9.48;;;9.80;99.90;;;;;;5010341;28;20534;-78
2022/09/30 01:56:40;;;;;;;17.92;8.68;;;9.70;99.90;;;;;;5012214;28;20676;-75
2022/09/30 01:59:19;;;;;;;9.85;8.50;;;9.60;99.90;;;;;;5009707;28;20184;-76
2022/09/30 02:01:50;;;;;;;10.10;8.82;;;9.70;99.90;;;;;;5012530;28;20203;-76
2022/09/30 02:04:22;;;;;;;10.85;9.75;;;9.70;99.90;;;;;;5012608;28;20219;-76
2022/09/30 02:06:52;;;;;;;9.38;8.48;;;9.80;99.90;;;;;;5012450;28;20649;-76
2022/09/30 02:09:39;;;;;;;12.52;9.02;;;9.80;99.90;;;;;;5012770;28;20169;-77
2022/09/30 02:12:10;;;;;;;10.60;8.55;;;9.70;99.90;;;;;;5012812;28;20179;-76
2022/09/30 02:14:42;;;;;;;14.63;10.02;;;9.70;99.90;;;;;;5012155;28;20246;-75
2022/09/30 02:17:15;;;;;;;11.65;9.35;;;9.70;99.90;;;;;;5012385;28;20203;-76
2022/09/30 02:19:48;;;;;;;14.85;9.02;;;9.80;99.90;;;;;;5012481;28;20292;-76
2022/09/30 02:22:20;;;;;;;11.70;9.55;;;9.80;99.90;;;;;;5011999;28;20220;-78
2022/09/30 02:24:51;;;;;;;8.68;7.88;;;9.90;99.90;;;;;;4994122;28;20251;-75
2022/09/30 02:27:24;;;;;;;9.25;8.35;;;10.00;99.90;;;;;;5011573;28;20251;-76
2022/09/30 02:29:55;;;;;;;11.00;9.90;;;9.80;99.90;;;;;;5011877;28;20160;-76
2022/09/30 02:32:32;;;;;;;11.32;8.82;;;9.70;99.90;;;;;;5011957;28;20547;-75
2022/09/30 02:35:04;;;;;;;10.60;9.35;;;9.50;99.90;;;;;;5012170;28;20188;-77
2022/09/30 02:37:43;;;;;;;12.70;10.15;;;9.60;99.90;;;;;;5015701;28;20168;-77
2022/09/30 02:40:20;;;;;;;10.23;9.13;;;9.30;99.90;;;;;;5015498;28;20536;-77
2022/09/30 02:42:47;;;;;;;10.75;9.10;;;9.10;99.90;;;;;;5015256;28;20204;-76
2022/09/30 02:45:17;;;;;;;9.35;8.45;;;9.10;99.90;;;;;;5015396;28;20191;-75
2022/09/30 02:47:57;;;;;;;10.90;9.20;;;9.20;99.90;;;;;;5015484;28;20571;-77
2022/09/30 02:50:31;;;;;;;13.48;9.40;;;9.20;99.90;;;;;;5015019;28;20168;-76
2022/09/30 02:53:20;;;;;;;10.20;9.05;;;9.00;99.90;;;;;;5014751;28;20222;-75
2022/09/30 02:56:22;;;;;;;13.90;9.48;;;9.00;99.90;;;;;;5015075;28;20203;-78
2022/09/30 02:58:49;;;;;;;10.30;8.55;;;9.10;99.90;;;;;;5015583;28;20259;-77
2022/09/30 03:01:16;;;;;;;15.52;9.30;;;9.30;99.90;;;;;;5015453;28;20200;-77
2022/09/30 03:03:58;;;;;;;19.65;9.88;;;9.40;99.90;;;;;;4997499;28;20172;-77
2022/09/30 03:06:24;;;;;;;12.63;8.55;;;9.60;99.90;;;;;;5015004;28;20168;-77
2022/09/30 03:08:51;;;;;;;10.82;9.75;;;9.50;99.90;;;;;;5015015;28;20500;-76
2022/09/30 03:11:19;;;;;;;10.70;9.68;;;9.30;99.90;;;;;;5014927;28;20161;-77
2022/09/30 03:14:01;;;;;;;10.70;9.35;;;9.20;99.90;;;;;;5014738;28;20169;-78
2022/09/30 03:16:50;;;;;;;12.85;8.57;;;9.10;99.90;;;;;;4997547;28;20642;-77
2022/09/30 03:19:24;;;;;;;9.90;9.00;;;9.10;99.90;;;;;;5014979;28;20204;-77
2022/09/30 03:22:01;;;;;;;10.20;8.82;;;9.30;99.90;;;;;;5014205;28;20199;-77
2022/09/30 03:24:36;;;;;;;17.88;8.82;;;9.30;99.90;;;;;;5014427;28;20228;-77
2022/09/30 03:27:02;;;;;;;10.93;9.88;;;9.30;99.90;;;;;;5014147;28;20168;-76
2022/09/30 03:30:04;;;;;;;11.57;9.43;;;9.30;99.90;;;;;;5014492;28;20596;-77
2022/09/30 03:32:53;;;;;;;10.10;9.20;;;9.40;99.90;;;;;;5014253;28;20164;-75
2022/09/30 03:35:28;;;;;;;14.35;9.90;;;9.50;99.90;;;;;;5014262;28;20666;-76
2022/09/30 03:38:23;;;;;;;21.98;9.15;;;9.40;99.90;;;;;;4996192;28;20263;-76
2022/09/30 03:41:03;;;;;;;10.18;9.18;;;9.40;99.90;;;;;;5014930;28;20172;-77
2022/09/30 03:43:39;;;;;;;10.32;8.98;;;9.40;99.90;;;;;;5014931;28;20223;-77
2022/09/30 03:46:36;;;;;;;14.70;9.05;;;9.40;99.90;;;;;;5014398;28;20237;-76
2022/09/30 03:49:05;;;;;;;11.70;9.30;;;9.30;99.90;;;;;;5013522;28;20593;-77
2022/09/30 03:51:34;;;;;;;9.15;8.32;;;9.40;99.90;;;;;;5014632;28;20178;-76
2022/09/30 03:54:00;;;;;;;14.27;9.30;;;9.40;99.90;;;;;;5014828;28;20168;-76
2022/09/30 03:56:28;;;;;;;12.10;9.52;;;9.40;99.90;;;;;;5014114;28;20259;-77
2022/09/30 03:58:55;;;;;;;10.88;9.77;;;9.40;99.90;;;;;;5014015;28;20626;-82
2022/09/30 04:01:22;;;;;;;11.18;9.10;;;9.50;99.90;;;;;;5013820;28;20172;-76
2022/09/30 04:03:51;;;;;;;12.05;9.70;;;9.50;99.90;;;;;;5013949;28;20246;-82
2022/09/30 04:06:18;;;;;;;12.63;10.65;;;9.70;99.90;;;;;;5014096;28;20180;-77
2022/09/30 04:08:44;;;;;;;11.05;9.68;;;9.40;99.90;;;;;;5013708;28;20323;-76
2022/09/30 04:11:10;;;;;;;10.60;9.40;;;9.40;99.90;;;;;;5014272;28;20650;-77
2022/09/30 04:13:36;;;;;;;11.82;10.23;;;9.40;99.90;;;;;;5014032;28;20260;-76
2022/09/30 04:16:02;;;;;;;13.35;10.73;;;9.40;99.90;;;;;;5013790;28;20263;-76
2022/09/30 04:18:30;;;;;;;11.82;10.63;;;9.50;99.90;;;;;;5013852;28;20167;-77
2022/09/30 04:20:56;;;;;;;14.25;10.02;;;9.60;99.90;;;;;;5014062;28;20168;-79
2022/09/30 04:23:21;;;;;;;11.13;10.02;;;9.70;99.90;;;;;;5044109;23;20281;-79
2022/09/30 04:25:54;;;;;;;16.38;10.18;;;9.60;99.90;;;;;;5033420;28;20188;-78
2022/09/30 04:28:21;;;;;;;18.83;10.00;;;9.50;99.90;;;;;;5015591;28;20178;-78
2022/09/30 04:30:46;;;;;;;12.35;11.23;;;9.60;99.90;;;;;;5015402;28;20581;-78
2022/09/30 04:33:12;;;;;;;15.45;11.20;;;9.60;99.90;;;;;;5033197;28;20168;-78
2022/09/30 04:35:38;;;;;;;14.30;10.63;;;9.50;99.90;;;;;;5033197;28;20188;-78
2022/09/30 04:38:06;;;;;;;10.90;9.90;;;9.60;99.90;;;;;;5032369;28;20180;-78
2022/09/30 04:40:36;;;;;;;10.95;9.55;;;9.40;99.90;;;;;;5032619;28;20622;-79
2022/09/30 04:43:02;;;;;;;11.27;10.18;;;9.20;99.90;;;;;;5032493;28;20195;-79
2022/09/30 04:45:48;;;;;;;17.73;10.70;;;9.20;99.90;;;;;;5032829;28;20211;-78
2022/09/30 04:48:15;;;;;;;15.65;11.23;;;9.30;99.90;;;;;;5032490;28;20534;-78
2022/09/30 04:50:41;;;;;;;14.30;10.35;;;9.30;99.90;;;;;;5032405;28;20163;-78
2022/09/30 04:56:02;;;;;;;14.45;10.95;;;9.10;99.90;;;;;;5029825;28;20192;-78
2022/09/30 04:58:31;;;;;;;19.67;13.52;;;9.00;99.90;;;;;;5032247;28;20168;-77
2022/09/30 05:01:14;;;;;;;14.32;11.45;;;9.00;99.90;;;;;;5032732;28;20167;-78
2022/09/30 05:03:40;;;;;;;14.30;12.35;;;9.10;99.90;;;;;;5014868;28;20274;-78
2022/09/30 05:06:06;;;;;;;24.92;14.02;;;9.20;99.90;;;;;;5032473;28;20211;-78
2022/09/30 05:08:35;;;;;;;19.98;14.10;;;9.30;99.90;;;;;;5031909;28;20168;-78
2022/09/30 05:11:03;;;;;;;19.63;14.45;;;9.40;99.90;;;;;;5032703;28;20262;-77
2022/09/30 05:13:35;;;;;;;15.20;13.60;;;9.40;99.90;;;;;;5032425;28;20167;-78
2022/09/30 05:16:01;;;;;;;16.60;13.95;;;9.40;99.90;;;;;;5014366;28;20188;-78
2022/09/30 05:18:27;;;;;;;16.48;14.68;;;9.30;99.90;;;;;;5032215;28;20518;-78
2022/09/30 05:20:56;;;;;;;20.83;14.35;;;9.40;99.90;;;;;;5032327;28;20163;-78
2022/09/30 05:23:22;;;;;;;21.88;15.70;;;9.50;99.90;;;;;;5032057;28;20207;-78
2022/09/30 05:25:48;;;;;;;17.90;14.15;;;9.50;99.90;;;;;;5014538;28;20674;-78
2022/09/30 05:28:14;;;;;;;24.85;16.55;;;9.40;99.90;;;;;;5032357;28;20176;-78
2022/09/30 05:30:44;;;;;;;24.00;17.73;;;9.50;99.90;;;;;;5014146;28;20182;-78
2022/09/30 05:33:11;;;;;;;23.05;18.50;;;9.70;99.90;;;;;;5014429;28;20584;-78
2022/09/30 05:35:42;;;;;;;22.92;17.83;;;9.60;99.90;;;;;;5032839;28;20251;-78
2022/09/30 05:38:09;;;;;;;27.35;18.80;;;9.60;99.90;;;;;;5031855;28;20195;-78
2022/09/30 05:40:39;;;;;;;31.73;20.20;;;9.50;99.90;;;;;;5032119;28;20528;-78
2022/09/30 05:43:05;;;;;;;26.20;18.13;;;9.60;99.90;;;;;;5031735;28;20206;-79
2022/09/30 05:45:31;;;;;;;30.13;18.50;;;9.70;99.90;;;;;;5031619;28;20270;-78
2022/09/30 05:47:56;;;;;;;23.92;17.77;;;9.60;99.90;;;;;;5031935;28;20275;-81
2022/09/30 05:50:23;;;;;;;24.52;17.80;;;9.60;99.90;;;;;;5014312;28;20250;-78
2022/09/30 05:52:50;;;;;;;21.58;18.30;;;9.60;99.90;;;;;;5030531;28;20500;-78
2022/09/30 05:55:17;;;;;;;22.88;17.65;;;9.50;99.90;;;;;;5031653;28;20180;-78
2022/09/30 05:57:45;;;;;;;23.55;16.23;;;9.70;99.90;;;;;;5031522;28;20195;-78
2022/09/30 06:00:11;;;;;;;23.02;17.25;;;9.60;99.90;;;;;;5032187;28;20168;-78
2022/09/30 06:02:37;;;;;;;21.42;16.95;;;9.70;99.90;;;;;;5031709;28;20213;-78
2022/09/30 06:05:08;;;;;;;24.55;17.83;;;9.70;99.90;;;;;;5035984;28;20740;-80
2022/09/30 06:07:38;;;;;;;22.67;16.90;;;9.80;99.90;;;;;;5037121;28;20179;-78
2022/09/30 06:10:06;;;;;;;27.05;18.02;;;9.80;99.90;;;;;;5042026;28;20652;-78
2022/09/30 06:12:35;;;;;;;36.08;18.30;;;9.90;99.90;;;;;;5044597;28;20586;-79
2022/09/30 06:15:00;;;;;;;33.15;19.25;;;9.80;99.90;;;;;;5025455;28;20191;-80
2022/09/30 06:17:26;;;;;;;27.92;18.80;;;9.70;99.90;;;;;;5039577;28;20171;-83
2022/09/30 06:19:51;;;;;;;26.15;18.00;;;9.70;99.90;;;;;;5039527;28;20217;-77
2022/09/30 06:22:17;;;;;;;25.70;17.60;;;9.80;99.90;;;;;;5038350;28;20560;-77
2022/09/30 06:24:44;;;;;;;21.65;17.50;;;9.80;99.90;;;;;;5037745;28;20739;-79
2022/09/30 06:27:10;;;;;;;27.23;19.50;;;10.00;99.90;;;;;;5039768;28;20156;-79
2022/09/30 06:29:37;;;;;;;34.50;19.30;;;9.90;99.90;;;;;;5039838;28;20152;-79
2022/09/30 06:32:03;;;;;;;24.05;17.63;;;10.10;99.90;;;;;;5021221;28;20246;-78
2022/09/30 06:34:34;;;;;;;25.65;19.17;;;10.00;99.90;;;;;;5033933;28;20188;-79
2022/09/30 06:37:00;;;;;;;28.55;19.13;;;10.10;99.90;;;;;;5014549;28;20152;-80
2022/09/30 06:39:26;;;;;;;22.63;17.83;;;10.40;99.90;;;;;;5035694;28;20237;-80
2022/09/30 06:41:54;;;;;;;28.42;18.63;;;10.30;99.90;;;;;;5019335;28;20222;-79
2022/09/30 06:44:19;;;;;;;32.05;18.77;;;10.10;99.90;;;;;;5019542;28;20180;-81
2022/09/30 06:46:45;;;;;;;25.30;18.85;;;10.00;99.90;;;;;;5035463;28;20173;-80
2022/09/30 06:49:11;;;;;;;26.40;18.90;;;10.20;99.90;;;;;;5035187;28;20164;-79
2022/09/30 06:51:36;;;;;;;26.77;18.35;;;10.20;99.90;;;;;;5017579;28;20168;-79
2022/09/30 06:54:02;;;;;;;28.88;17.70;;;10.40;99.90;;;;;;5035203;28;20251;-80
2022/09/30 06:56:28;;;;;;;25.50;19.00;;;10.50;99.90;;;;;;5036821;28;20175;-79
2022/09/30 06:58:55;;;;;;;37.83;19.13;;;10.50;99.90;;;;;;5035089;28;20234;-80
2022/09/30 07:01:23;;;;;;;23.60;17.83;;;10.60;99.90;;;;;;5017125;28;20183;-79
2022/09/30 07:03:50;;;;;;;26.67;18.90;;;10.60;99.90;;;;;;5035257;28;20160;-79
2022/09/30 07:06:15;;;;;;;24.42;18.10;;;10.50;99.90;;;;;;5034849;28;20168;-78
2022/09/30 07:08:41;;;;;;;23.48;18.60;;;10.60;99.90;;;;;;5016714;28;20649;-78
2022/09/30 07:11:16;;;;;;;36.88;17.42;;;10.60;99.90;;;;;;5034970;28;20531;-78
2022/09/30 07:13:44;;;;;;;21.73;16.80;;;10.80;99.90;;;;;;5035017;28;20168;-81
2022/09/30 07:16:10;;;;;;;26.95;17.58;;;10.90;99.90;;;;;;5035555;28;20645;-78
2022/09/30 07:18:36;;;;;;;30.20;17.92;;;10.70;99.90;;;;;;5052072;28;20160;-79
2022/09/30 07:21:03;;;;;;;23.17;16.40;;;10.60;99.90;;;;;;5034032;28;20222;-80
2022/09/30 07:23:29;;;;;;;28.63;16.38;;;10.80;99.90;;;;;;5053030;28;20311;-78
2022/09/30 07:26:00;;;;;;;22.23;16.52;;;10.90;99.90;;;;;;5020807;28;20219;-78
2022/09/30 07:28:30;;;;;;;20.58;16.67;;;11.00;99.90;;;;;;5036533;28;20192;-78
2022/09/30 07:30:57;;;;;;;27.00;16.90;;;11.00;99.90;;;;;;5039118;28;20569;-80
2022/09/30 07:33:25;;;;;;;25.45;16.73;;;11.10;99.90;;;;;;5017072;28;20168;-80
2022/09/30 07:35:53;;;;;;;20.63;16.58;;;11.10;99.90;;;;;;5035183;28;20234;-80
2022/09/30 07:38:20;;;;;;;20.52;16.33;;;11.40;99.90;;;;;;5035724;28;20156;-84
2022/09/30 07:41:13;;;;;;;24.65;16.30;;;11.60;99.90;;;;;;5017745;28;20164;-83
2022/09/30 07:43:42;;;;;;;19.20;15.57;;;11.60;99.90;;;;;;5032065;28;20272;-84
2022/09/30 07:46:12;;;;;;;22.88;15.35;;;11.70;99.90;;;;;;5034685;28;20237;-85
2022/09/30 07:48:45;;;;;;;24.00;16.05;;;11.60;99.90;;;;;;5017655;28;20160;-86
2022/09/30 07:53:54;;;;;;;18.83;15.63;;;11.60;99.90;;;;;;5109529;23;20235;-81
2022/09/30 07:56:20;;;;;;;23.88;15.68;;;11.60;99.90;;;;;;5034052;28;20256;-80
2022/09/30 07:58:47;;;;;;;24.70;13.98;;;11.60;99.90;;;;;;5033548;28;20164;-78
2022/09/30 08:01:13;;;;;;;17.52;14.02;;;11.60;99.90;;;;;;5050681;28;20213;-79
2022/09/30 08:03:43;;;;;;;35.15;18.70;;;11.80;99.90;;;;;;5040747;28;20208;-78
2022/09/30 08:06:12;;;;;;;34.15;18.15;;;12.00;99.90;;;;;;5034312;28;20186;-81
2022/09/30 08:09:10;;;;;;;29.17;17.52;;;12.20;99.90;;;;;;5033988;28;20571;-81
2022/09/30 08:11:37;;;;;;;23.77;14.80;;;12.60;99.90;;;;;;5010251;28;20255;-78
2022/09/30 08:14:03;;;;;;;17.75;13.60;;;12.70;99.90;;;;;;5033453;28;20172;-79
2022/09/30 08:16:29;;;;;;;22.58;12.65;;;12.60;99.90;;;;;;5033302;28;20286;-81
2022/09/30 08:19:00;;;;;;;20.08;12.13;;;12.60;99.90;;;;;;5032716;28;20672;-79
2022/09/30 08:21:27;;;;;;;18.83;12.77;;;12.70;99.90;;;;;;5033519;28;20180;-80
2022/09/30 08:23:53;;;;;;;15.88;13.23;;;12.70;99.90;;;;;;5033634;28;20172;-80
2022/09/30 08:26:19;;;;;;;23.83;12.85;;;13.00;99.90;;;;;;5034320;28;20270;-79
2022/09/30 08:28:46;;;;;;;15.60;10.98;;;13.00;99.90;;;;;;5034043;28;20261;-79
2022/09/30 08:31:22;;;;;;;18.70;13.00;;;13.10;99.90;;;;;;5032736;28;20568;-80
2022/09/30 08:33:48;;;;;;;12.77;11.43;;;13.30;99.90;;;;;;5032706;28;20525;-78
2022/09/30 08:36:16;;;;;;;14.23;11.18;;;13.50;99.90;;;;;;5031576;28;20541;-79
2022/09/30 08:38:42;;;;;;;12.68;10.63;;;13.60;99.90;;;;;;5033117;28;20170;-79
2022/09/30 08:41:41;;;;;;;20.50;11.45;;;13.80;99.90;;;;;;5032849;28;20217;-79
2022/09/30 08:44:24;;;;;;;17.77;11.77;;;14.00;99.90;;;;;;5032752;28;20295;-79
2022/09/30 08:46:58;;;;;;;15.60;11.70;;;13.90;99.90;;;;;;5031781;28;20191;-79
2022/09/30 08:49:43;;;;;;;15.60;11.20;;;14.00;99.90;;;;;;5033122;28;20176;-79
2022/09/30 08:52:22;;;;;;;13.32;10.52;;;13.80;99.90;;;;;;5033739;28;20176;-80
2022/09/30 08:54:52;;;;;;;11.10;9.93;;;13.80;99.90;;;;;;5031523;28;20241;-79
2022/09/30 08:57:19;;;;;;;27.08;10.40;;;13.90;99.90;;;;;;5032847;28;20172;-80
2022/09/30 08:59:57;;;;;;;12.02;9.35;;;14.10;99.90;;;;;;5033156;28;20255;-79
2022/09/30 09:02:29;;;;;;;12.50;9.02;;;14.20;99.90;;;;;;5032879;28;20209;-79
2022/09/30 09:05:01;;;;;;;18.38;9.07;;;14.30;99.90;;;;;;5048144;28;20188;-79
2022/09/30 09:07:41;;;;;;;15.85;9.38;;;14.30;99.90;;;;;;5032451;28;20692;-79
2022/09/30 09:10:30;;;;;;;12.30;9.02;;;14.30;99.90;;;;;;5032895;28;20163;-80
2022/09/30 09:13:17;;;;;;;9.75;8.73;;;14.30;99.90;;;;;;5032301;28;20179;-80
2022/09/30 09:15:46;;;;;;;10.90;9.32;;;14.50;99.90;;;;;;5032312;28;20199;-79
2022/09/30 09:18:33;;;;;;;18.25;9.02;;;14.70;99.90;;;;;;5032339;28;20608;-78
2022/09/30 09:21:24;;;;;;;13.23;7.88;;;14.80;99.90;;;;;;5032942;28;20174;-85
2022/09/30 09:23:52;;;;;;;11.82;7.35;;;15.00;99.90;;;;;;5033155;28;20187;-85
2022/09/30 09:26:18;;;;;;;13.45;7.97;;;15.10;99.90;;;;;;5033692;28;20168;-84
2022/09/30 09:28:43;;;;;;;8.85;7.95;;;15.20;99.90;;;;;;5033532;28;20573;-85
2022/09/30 09:31:16;;;;;;;15.13;7.45;;;15.30;99.90;;;;;;5031380;28;20172;-80
2022/09/30 09:33:42;;;;;;;7.28;6.57;;;15.30;99.90;;;;;;5047774;28;20183;-79
2022/09/30 09:36:14;;;;;;;10.27;6.20;;;15.20;99.90;;;;;;5032019;28;20191;-80
2022/09/30 09:38:58;;;;;;;14.43;6.60;;;15.20;99.90;;;;;;5031919;28;20172;-79
2022/09/30 09:41:24;;;;;;;10.00;6.70;;;15.30;99.90;;;;;;5032359;28;20172;-80
2022/09/30 09:44:25;;;;;;;16.95;6.90;;;15.30;99.90;;;;;;5032163;28;20542;-80
2022/09/30 09:47:04;;;;;;;5.97;5.43;;;15.40;99.90;;;;;;5036417;28;20178;-80
2022/09/30 09:49:37;;;;;;;8.90;5.55;;;15.50;99.90;;;;;;5035544;28;20576;-78
2022/09/30 09:52:11;;;;;;;8.55;4.40;;;15.60;99.90;;;;;;5035960;28;20187;-78
2022/09/30 09:54:40;;;;;;;6.28;3.97;;;15.50;99.90;;;;;;5036081;28;20270;-79
2022/09/30 09:57:30;;;;;;;8.48;5.28;;;15.70;99.90;;;;;;5035743;28;20271;-79
2022/09/30 10:03:15;;;;;;;7.10;4.63;;;16.00;99.90;;;;;;5037909;28;20262;-81
2022/09/30 10:05:41;;;;;;;5.00;4.05;;;16.00;99.90;;;;;;5034567;28;20200;-78
2022/09/30 10:08:17;;;;;;;5.90;3.35;;;16.00;99.90;;;;;;5035972;28;20542;-79
2022/09/30 10:10:48;;;;;;;9.05;3.85;;;15.90;99.90;;;;;;5035983;28;20170;-79
2022/09/30 10:13:24;;;;;;;11.27;3.75;;;15.90;99.90;;;;;;5036078;28;20521;-79
2022/09/30 10:15:52;;;;;;;6.15;3.83;;;16.00;99.90;;;;;;5034595;28;20251;-79
2022/09/30 10:18:38;;;;;;;5.65;3.50;;;16.10;99.90;;;;;;5051371;28;20597;-79
2022/09/30 10:21:18;;;;;;;6.13;4.30;;;16.10;99.90;;;;;;5035708;28;20187;-79
2022/09/30 10:23:44;;;;;;;7.32;3.90;;;16.10;99.90;;;;;;5035406;28;20560;-79
2022/09/30 10:26:19;;;;;;;5.72;4.72;;;16.00;99.90;;;;;;5035953;28;20187;-79
2022/09/30 10:28:52;;;;;;;4.25;3.85;;;15.90;99.90;;;;;;5035420;28;20179;-79
2022/09/30 10:31:41;;;;;;;12.73;5.30;;;16.10;99.90;;;;;;5035549;28;20245;-79
2022/09/30 10:34:20;;;;;;;5.05;4.30;;;16.20;99.90;;;;;;5050721;28;20192;-79
2022/09/30 10:36:47;;;;;;;5.03;4.10;;;16.10;99.90;;;;;;5035251;28;20174;-79
2022/09/30 10:39:34;;;;;;;5.43;4.35;;;16.20;99.90;;;;;;5035377;28;20172;-80
2022/09/30 10:42:11;;;;;;;5.57;5.05;;;16.10;99.90;;;;;;5035063;28;20294;-80
2022/09/30 10:44:53;;;;;;;4.95;4.45;;;16.20;99.90;;;;;;5033534;28;20199;-79
2022/09/30 10:47:27;;;;;;;7.38;4.68;;;16.20;99.90;;;;;;5035035;28;20532;-80
2022/09/30 10:49:55;;;;;;;4.70;3.47;;;16.30;99.90;;;;;;5035199;28;20171;-79
2022/09/30 10:52:29;;;;;;;7.35;3.95;;;16.40;99.90;;;;;;5034923;28;20652;-78
2022/09/30 10:54:57;;;;;;;4.45;4.03;;;16.40;99.90;;;;;;5035391;28;20223;-78
2022/09/30 10:57:41;;;;;;;7.47;3.75;;;16.40;99.90;;;;;;5034300;28;20225;-78
2022/09/30 11:00:20;;;;;;;6.03;3.80;;;16.30;99.90;;;;;;5034918;28;20186;-78
2022/09/30 11:03:04;;;;;;;3.90;3.05;;;16.40;99.90;;;;;;5035012;28;20207;-77
2022/09/30 11:05:34;;;;;;;6.47;3.83;;;16.50;99.90;;;;;;5034761;28;20203;-78
2022/09/30 11:08:43;;;;;;;10.13;4.13;;;16.50;99.90;;;;;;5033426;28;20172;-78
2022/09/30 11:11:22;;;;;;;4.05;3.65;;;16.60;99.90;;;;;;5029631;28;20198;-79
2022/09/30 11:14:15;;;;;;;3.60;3.30;;;16.60;99.90;;;;;;5034221;28;20266;-79
2022/09/30 11:16:51;;;;;;;6.10;3.33;;;16.70;99.90;;;;;;5034864;28;20176;-79
2022/09/30 11:19:20;;;;;;;6.53;3.05;;;16.60;99.90;;;;;;5034689;28;20164;-79
2022/09/30 11:22:10;;;;;;;6.10;2.72;;;16.60;99.90;;;;;;5034176;28;20172;-79
2022/09/30 11:24:42;;;;;;;3.55;2.58;;;16.70;99.90;;;;;;5034423;28;20198;-80
2022/09/30 11:27:30;;;;;;;3.67;2.70;;;16.60;99.90;;;;;;5033401;28;20206;-79
2022/09/30 11:30:29;;;;;;;8.40;3.72;;;16.60;99.90;;;;;;5034432;28;20247;-78
2022/09/30 11:33:24;;;;;;;6.68;3.22;;;16.60;99.90;;;;;;5034346;28;20170;-79
2022/09/30 11:36:25;;;;;;;2.90;2.28;;;16.50;99.90;;;;;;5034172;28;20203;-80
2022/09/30 11:39:09;;;;;;;3.90;3.60;;;16.50;99.90;;;;;;5045579;28;20202;-81
2022/09/30 11:41:42;;;;;;;4.80;4.15;;;16.70;99.90;;;;;;5033967;28;20164;-88
2022/09/30 11:44:20;;;;;;;4.60;4.20;;;16.90;99.90;;;;;;5033904;28;20250;-79
2022/09/30 11:47:10;;;;;;;8.82;3.97;;;16.90;99.90;;;;;;5033604;28;20627;-78
2022/09/30 11:50:05;;;;;;;4.80;2.97;;;17.00;99.90;;;;;;5033750;28;20164;-78
2022/09/30 11:52:52;;;;;;;7.10;3.40;;;17.00;99.90;;;;;;5033495;28;20263;-78
2022/09/30 11:55:26;;;;;;;5.28;2.75;;;17.10;99.90;;;;;;5032445;28;20670;-80
2022/09/30 11:58:14;;;;;;;3.40;3.10;;;17.00;99.90;;;;;;5033675;28;20175;-81
2022/09/30 12:00:46;;;;;;;3.50;3.20;;;17.10;99.90;;;;;;5034438;28;20211;-79
2022/09/30 12:03:18;;;;;;;7.20;3.55;;;17.30;99.90;;;;;;5033528;28;20776;-80
2022/09/30 12:05:46;;;;;;;4.82;4.03;;;17.30;99.90;;;;;;5032882;28;20233;-81
2022/09/30 12:08:56;;;;;;;3.30;2.88;;;17.40;99.90;;;;;;5032507;28;20172;-80
2022/09/30 12:11:38;;;;;;;6.65;3.20;;;17.50;99.90;;;;;;5033654;28;20174;-80
2022/09/30 12:14:12;;;;;;;6.47;3.95;;;17.70;99.90;;;;;;5032072;28;20175;-80
2022/09/30 12:16:38;;;;;;;7.32;3.22;;;17.80;99.90;;;;;;5033600;28;20255;-85
2022/09/30 12:19:38;;;;;;;8.10;3.63;;;17.90;99.90;;;;;;5032298;28;20179;-80
2022/09/30 12:22:10;;;;;;;4.78;4.32;;;17.90;99.90;;;;;;5027026;28;20215;-80
2022/09/30 12:24:41;;;;;;;4.78;3.45;;;17.90;99.90;;;;;;5033444;28;20203;-80
2022/09/30 12:27:30;;;;;;;7.32;2.55;;;17.80;99.90;;;;;;5033281;28;20250;-79
2022/09/30 12:30:17;;;;;;;4.38;3.47;;;17.70;99.90;;;;;;5033323;28;20195;-80
2022/09/30 12:33:01;;;;;;;5.88;3.08;;;17.60;99.90;;;;;;5033457;28;20175;-79
2022/09/30 12:35:38;;;;;;;4.57;3.38;;;17.60;99.90;;;;;;5031863;28;20195;-80
2022/09/30 12:38:38;;;;;;;3.95;3.25;;;17.70;99.90;;;;;;5032880;28;20174;-80
2022/09/30 12:41:18;;;;;;;12.98;3.58;;;17.50;99.90;;;;;;5032916;28;20179;-80
2022/09/30 12:43:56;;;;;;;4.15;3.75;;;17.60;99.90;;;;;;5032526;28;20223;-80
2022/09/30 12:46:31;;;;;;;4.05;3.35;;;17.60;99.90;;;;;;5031173;28;20167;-80
2022/09/30 12:49:02;;;;;;;3.30;3.00;;;17.70;99.90;;;;;;5047700;28;20458;-80
2022/09/30 12:51:30;;;;;;;3.63;3.33;;;17.70;99.90;;;;;;5031191;28;20225;-80
2022/09/30 12:54:19;;;;;;;4.15;3.78;;;17.60;99.90;;;;;;5032255;28;20207;-80
2022/09/30 12:56:52;;;;;;;4.78;3.13;;;17.50;99.90;;;;;;5032374;28;20697;-80
2022/09/30 12:59:25;;;;;;;8.00;4.05;;;17.50;99.90;;;;;;5032701;28;20164;-79
2022/09/30 13:01:51;;;;;;;3.28;2.97;;;17.50;99.90;;;;;;5048959;28;20641;-84
2022/09/30 13:04:34;;;;;;;7.40;2.58;;;17.60;99.90;;;;;;5033058;28;20191;-85
2022/09/30 13:06:59;;;;;;;2.60;2.40;;;17.60;99.90;;;;;;5031287;28;20164;-80
2022/09/30 13:10:00;;;;;;;9.38;4.07;;;17.60;99.90;;;;;;5032358;28;20167;-80
2022/09/30 13:12:51;;;;;;;3.60;3.30;;;17.80;99.90;;;;;;5010079;28;20222;-80
2022/09/30 13:15:40;;;;;;;5.40;3.15;;;17.80;99.90;;;;;;5030785;28;20202;-80
2022/09/30 13:18:18;;;;;;;6.70;3.47;;;17.80;99.90;;;;;;5029221;28;20176;-80
2022/09/30 13:21:17;;;;;;;5.18;3.05;;;17.90;99.90;;;;;;5030777;28;20634;-82
2022/09/30 13:23:50;;;;;;;8.10;3.20;;;17.80;99.90;;;;;;5047307;28;20698;-81
2022/09/30 13:26:21;;;;;;;5.25;2.78;;;17.80;99.90;;;;;;5030471;28;20187;-81